Time;durP1;ratioP1;P1;durP2;ratioP2;P2;SDS_P1;SDS_P2;PMS_P1;PMS_P2;Temp;Humidity;BMP_temperature;BMP_pressure;BME280_temperature;BME280_humidity;BME280_pressure;Samples;Min_cycle;Max_cycle;Signal;HPM_P1;HPM_P2
2023/01/18 00:01:06;;;;;;;5.97;3.22;;;0.50;99.90;;;;;;5050117;28;20574;-81
2023/01/18 00:03:33;;;;;;;6.55;3.38;;;;;;;;;;5032240;28;20308;-81
2023/01/18 00:06:00;;;;;;;6.90;3.65;;;;;;;;;;5042345;28;20052;-81
2023/01/18 00:08:28;;;;;;;5.20;3.13;;;;;;;;;;5049596;28;20037;-81
2023/01/18 00:10:54;;;;;;;8.52;3.58;;;;;;;;;;5035213;28;20040;-81
2023/01/18 00:13:20;;;;;;;4.43;3.25;;;;;;;;;;5049362;28;20059;-81
2023/01/18 00:15:46;;;;;;;5.20;3.28;;;;;;;;;;5049362;28;20105;-82
2023/01/18 00:18:12;;;;;;;5.53;3.63;;;;;;;;;;5049079;28;20056;-81
2023/01/18 00:20:37;;;;;;;4.95;3.15;;;;;;;;;;5049079;28;20052;-81
2023/01/18 00:23:03;;;;;;;6.32;4.05;;;;;;;;;;5025782;28;20045;-81
2023/01/18 00:25:30;;;;;;;4.47;3.22;;;;;;;;;;5041838;28;20048;-81
2023/01/18 00:27:56;;;;;;;7.03;3.38;;;;;;;;;;5049528;28;20051;-81
2023/01/18 00:30:23;;;;;;;5.80;3.45;;;;;;;;;;5049520;28;20064;-82
2023/01/18 00:32:52;;;;;;;5.75;3.05;;;;;;;;;;5031967;28;20499;-81
2023/01/18 00:35:20;;;;;;;8.63;3.55;;;;;;;;;;5037986;28;20125;-81
2023/01/18 00:37:47;;;;;;;5.63;2.60;;;;;;;;;;5049022;28;20076;-81
2023/01/18 00:40:13;;;;;;;4.93;3.13;;;;;;;;;;5048790;28;20131;-81
2023/01/18 00:45:25;;;;;;;;;;;;;;;;;;5049166;28;20059;-81
2023/01/18 00:47:51;;;;;;;5.35;2.83;;;;;;;;;;5048426;28;20434;-81
2023/01/18 00:50:19;;;;;;;6.45;3.55;;;;;;;;;;5042463;28;20045;-81
2023/01/18 00:52:45;;;;;;;8.75;3.00;;;;;;;;;;5025353;28;20045;-81
2023/01/18 00:55:12;;;;;;;12.30;2.90;;;;;;;;;;5043384;28;20118;-81
2023/01/18 00:57:38;;;;;;;4.50;2.63;;;;;;;;;;5039919;28;20114;-81
2023/01/18 01:00:04;;;;;;;8.57;3.55;;;;;;;;;;5048589;28;20070;-81
2023/01/18 01:02:30;;;;;;;5.43;3.00;;;;;;;;;;5048397;28;20097;-81
2023/01/18 01:07:41;;;;;;;8.25;3.20;;;;;;;;;;5038852;28;20049;-81
2023/01/18 01:10:07;;;;;;;6.57;3.40;;;;;;;;;;5044690;28;20512;-81
2023/01/18 01:26:16;;;;;;;6.75;3.38;;;;;;;;;;5043559;28;20080;-81
2023/01/18 01:28:49;;;;;;;6.63;3.55;;;;;;;;;;5039763;28;20173;-81
2023/01/18 01:31:16;;;;;;;6.97;3.83;;;;;;;;;;5048887;28;20449;-81
2023/01/18 01:33:43;;;;;;;5.32;2.97;;;;;;;;;;5048591;28;20052;-81
2023/01/18 01:36:13;;;;;;;4.60;2.80;;;;;;;;;;5048446;28;20155;-81
2023/01/18 01:38:40;;;;;;;5.82;3.53;;;;;;;;;;5048940;28;20066;-81
2023/01/18 01:41:26;;;;;;;8.88;3.88;;;;;;;;;;5034377;28;20094;-81
2023/01/18 01:43:54;;;;;;;5.60;3.72;;;-0.10;99.90;;;;;;5047228;28;20153;-81
2023/01/18 01:46:20;;;;;;;5.88;3.65;;;;;;;;;;5049810;28;20040;-80
2023/01/18 01:48:47;;;;;;;5.88;3.60;;;;;;;;;;5042960;28;20029;-81
2023/01/18 01:51:13;;;;;;;6.18;3.95;;;;;;;;;;5045195;28;20045;-81
2023/01/18 01:53:39;;;;;;;7.82;3.75;;;;;;;;;;5051014;28;20154;-81
2023/01/18 01:56:06;;;;;;;6.60;3.92;;;;;;;;;;5050752;28;20127;-81
2023/01/18 01:58:32;;;;;;;6.35;4.50;;;;;;;;;;5050746;28;20440;-80
2023/01/18 02:00:58;;;;;;;5.70;3.97;;;;;;;;;;5050300;28;20043;-81
2023/01/18 02:03:25;;;;;;;8.52;4.00;;;;;;;;;;5050353;28;20049;-81
2023/01/18 02:05:54;;;;;;;5.85;3.83;;;;;;;;;;5050474;28;20559;-80
2023/01/18 02:08:23;;;;;;;6.85;4.28;;;;;;;;;;5050441;28;20086;-80
2023/01/18 02:10:49;;;;;;;7.15;3.78;;;;;;;;;;5036318;28;20032;-81
2023/01/18 02:13:15;;;;;;;6.45;3.95;;;;;;;;;;5033682;28;20135;-81
2023/01/18 02:15:47;;;;;;;5.35;4.55;;;;;;;;;;5050458;28;20501;-81
2023/01/18 02:18:37;;;;;;;6.75;4.35;;;;;;;;;;5050713;28;20051;-81
2023/01/18 02:21:16;;;;;;;10.88;5.85;;;;;;;;;;5050231;28;20040;-80
2023/01/18 02:23:49;;;;;;;12.00;4.50;;;;;;;;;;5050121;28;20055;-81
2023/01/18 02:26:38;;;;;;;6.90;5.15;;;;;;;;;;5033361;28;20140;-81
2023/01/18 02:29:17;;;;;;;8.80;5.70;;;;;;;;;;5050095;28;20059;-81
2023/01/18 02:32:03;;;;;;;9.25;5.25;;;;;;;;;;5038001;28;20490;-81
2023/01/18 02:34:41;;;;;;;9.32;5.78;;;-0.40;99.90;;;;;;5028868;28;20052;-81
2023/01/18 02:37:16;;;;;;;8.82;5.72;;;;;;;;;;5050189;28;20129;-80
2023/01/18 02:39:58;;;;;;;8.18;5.55;;;;;;;;;;5050066;28;20143;-81
2023/01/18 02:48:46;;;;;;;9.40;6.22;;;;;;;;;;4939976;28;20612;-81
2023/01/18 02:51:12;;;;;;;11.07;6.60;;;;;;;;;;5029283;28;20048;-81
2023/01/18 02:53:40;;;;;;;9.48;6.15;;;;;;;;;;5049876;28;20055;-80
2023/01/18 02:56:11;;;;;;;8.75;5.90;;;;;;;;;;5036059;28;20106;-80
2023/01/18 02:58:40;;;;;;;9.40;5.90;;;;;;;;;;5049130;28;20063;-81
2023/01/18 03:01:12;;;;;;;11.70;6.85;;;;;;;;;;5049456;28;20111;-81
2023/01/18 03:03:42;;;;;;;12.27;7.43;;;;;;;;;;5033208;28;20536;-81
2023/01/18 03:06:08;;;;;;;8.82;6.20;;;;;;;;;;5049504;28;20541;-81
2023/01/18 03:08:37;;;;;;;10.95;6.00;;;;;;;;;;5049882;28;20123;-80
2023/01/18 03:11:19;;;;;;;8.18;6.00;;;;;;;;;;5049853;28;20052;-80
2023/01/18 03:13:58;;;;;;;13.57;6.85;;;;;;;;;;5049491;28;20036;-81
2023/01/18 03:16:31;;;;;;;10.82;6.05;;;-0.80;99.90;;;;;;5049334;28;20072;-80
2023/01/18 03:19:04;;;;;;;10.90;6.50;;;;;;;;;;5049514;28;20040;-80
2023/01/18 03:21:40;;;;;;;10.10;5.85;;;;;;;;;;5034975;28;20055;-81
2023/01/18 03:24:07;;;;;;;13.10;7.53;;;;;;;;;;5048679;28;20177;-80
2023/01/18 03:26:39;;;;;;;9.15;5.57;;;-0.70;99.90;;;;;;5048524;28;20044;-81
2023/01/18 03:34:42;;;;;;;9.65;6.40;;;;;;;;;;5048602;28;20108;-81
2023/01/18 03:37:11;;;;;;;9.25;5.90;;;;;;;;;;5048658;28;20040;-81
2023/01/18 03:39:43;;;;;;;12.40;5.95;;;;;;;;;;5032033;28;20044;-81
2023/01/18 03:42:14;;;;;;;10.55;6.47;;;;;;;;;;5048437;28;20136;-81
2023/01/18 03:44:44;;;;;;;15.00;6.15;;;;;;;;;;5048793;28;20449;-81
2023/01/18 03:47:10;;;;;;;12.63;5.65;;;;;;;;;;5031902;28;20517;-81
2023/01/18 03:49:36;;;;;;;10.73;6.00;;;;;;;;;;5048561;28;20045;-80
2023/01/18 03:52:09;;;;;;;8.98;6.05;;;;;;;;;;5048288;28;20043;-81
2023/01/18 03:54:46;;;;;;;9.05;5.78;;;-0.50;99.90;;;;;;5031763;28;20138;-81
2023/01/18 03:57:28;;;;;;;10.45;5.82;;;;;;;;;;5048590;28;20119;-81
2023/01/18 03:59:54;;;;;;;16.83;5.80;;;;;;;;;;5048789;28;20410;-81
2023/01/18 04:02:20;;;;;;;10.82;5.45;;;;;;;;;;5047766;28;20078;-81
2023/01/18 04:04:46;;;;;;;10.68;5.28;;;;;;;;;;5031505;28;20055;-81
2023/01/18 04:07:12;;;;;;;9.70;5.80;;;;;;;;;;5048051;28;20553;-81
2023/01/18 04:09:38;;;;;;;10.00;6.60;;;;;;;;;;5048025;28;20036;-81
2023/01/18 04:12:04;;;;;;;11.20;6.18;;;;;;;;;;5047706;28;20123;-81
2023/01/18 04:14:30;;;;;;;10.20;6.05;;;;;;;;;;5047380;28;20120;-81
2023/01/18 04:16:56;;;;;;;11.27;6.05;;;;;;;;;;5047893;28;20044;-81
2023/01/18 04:19:22;;;;;;;10.23;5.53;;;;;;;;;;5047544;28;20036;-81
2023/01/18 04:21:48;;;;;;;11.88;5.63;;;;;;;;;;5047960;28;20045;-81
2023/01/18 04:24:16;;;;;;;10.27;6.75;;;;;;;;;;5047525;28;20076;-81
2023/01/18 04:26:42;;;;;;;11.57;6.38;;;;;;;;;;5047444;28;20059;-81
2023/01/18 04:29:08;;;;;;;12.75;6.78;;;;;;;;;;5047899;28;20109;-81
2023/01/18 04:31:34;;;;;;;11.27;6.13;;;;;;;;;;5047710;28;20110;-81
2023/01/18 04:34:00;;;;;;;10.93;6.38;;;;;;;;;;5047781;28;20083;-81
2023/01/18 04:36:27;;;;;;;11.13;6.85;;;;;;;;;;5047472;28;20485;-81
2023/01/18 04:38:53;;;;;;;12.80;7.28;;;;;;;;;;5047618;28;20052;-81
2023/01/18 04:41:19;;;;;;;14.88;7.35;;;;;;;;;;5046712;28;20082;-81
2023/01/18 04:43:45;;;;;;;11.32;6.97;;;;;;;;;;5047103;28;20117;-81
2023/01/18 04:46:11;;;;;;;14.50;8.15;;;;;;;;;;5047124;28;20052;-81
2023/01/18 04:48:37;;;;;;;14.35;7.35;;;;;;;;;;5047149;28;20041;-81
2023/01/18 04:51:04;;;;;;;15.10;8.13;;;;;;;;;;5047374;28;20076;-81
2023/01/18 04:53:30;;;;;;;12.93;7.72;;;;;;;;;;5046418;28;20070;-81
2023/01/18 04:55:57;;;;;;;16.48;7.93;;;;;;;;;;5034115;28;20466;-81
2023/01/18 04:58:23;;;;;;;10.90;7.45;;;;;;;;;;5047242;28;20052;-81
2023/01/18 05:00:49;;;;;;;16.25;7.50;;;;;;;;;;5047056;28;20052;-81
2023/01/18 05:03:15;;;;;;;11.05;7.32;;;;;;;;;;5047308;28;20063;-81
2023/01/18 05:05:41;;;;;;;11.07;7.05;;;;;;;;;;5046912;28;20052;-81
2023/01/18 05:08:07;;;;;;;14.52;7.22;;;;;;;;;;5047410;28;20044;-81
2023/01/18 05:10:33;;;;;;;12.70;7.70;;;;;;;;;;5046610;28;20044;-81
2023/01/18 05:12:59;;;;;;;13.75;7.72;;;;;;;;;;5046832;28;20048;-81
2023/01/18 05:15:25;;;;;;;12.40;6.68;;;;;;;;;;5046965;28;20051;-81
2023/01/18 05:17:51;;;;;;;14.38;7.35;;;;;;;;;;5047105;28;20063;-81
2023/01/18 05:20:17;;;;;;;13.65;7.53;;;;;;;;;;5038926;28;20087;-81
2023/01/18 05:22:43;;;;;;;13.77;7.10;;;;;;;;;;5047864;28;20494;-81
2023/01/18 05:25:09;;;;;;;11.90;7.45;;;;;;;;;;5050919;28;20052;-81
2023/01/18 05:27:36;;;;;;;11.88;7.43;;;;;;;;;;5050654;28;20094;-81
2023/01/18 05:30:02;;;;;;;10.68;6.93;;;;;;;;;;5043724;28;20097;-81
2023/01/18 05:32:28;;;;;;;12.40;6.72;;;;;;;;;;5044127;28;20048;-81
2023/01/18 05:34:54;;;;;;;12.48;7.72;;;;;;;;;;5034009;28;20042;-81
2023/01/18 05:37:20;;;;;;;12.68;7.22;;;;;;;;;;5033966;28;20084;-81
2023/01/18 05:39:46;;;;;;;13.20;7.47;;;;;;;;;;5050153;28;20040;-81
2023/01/18 05:42:12;;;;;;;14.63;7.85;;;;;;;;;;5050194;28;20105;-81
2023/01/18 05:44:38;;;;;;;17.30;7.38;;;;;;;;;;5050207;28;20564;-81
2023/01/18 05:47:04;;;;;;;11.57;7.25;;;;;;;;;;5050486;28;20040;-81
2023/01/18 05:49:30;;;;;;;12.15;7.25;;;;;;;;;;5050506;28;20792;-81
2023/01/18 05:51:56;;;;;;;12.73;6.80;;;;;;;;;;5044697;28;20048;-81
2023/01/18 05:54:22;;;;;;;11.43;7.15;;;;;;;;;;5034512;28;20453;-81
2023/01/18 05:56:48;;;;;;;15.98;7.80;;;;;;;;;;5044331;28;20052;-81
2023/01/18 05:59:14;;;;;;;15.18;6.65;;;;;;;;;;5050291;28;20418;-81
2023/01/18 06:01:41;;;;;;;12.88;7.55;;;;;;;;;;5050456;28;20766;-81
2023/01/18 06:04:07;;;;;;;13.80;8.40;;;;;;;;;;5050225;28;20463;-81
2023/01/18 06:06:33;;;;;;;10.85;6.95;;;;;;;;;;5050055;28;20080;-81
2023/01/18 06:09:00;;;;;;;15.55;7.57;;;;;;;;;;5049951;28;20101;-81
2023/01/18 06:11:26;;;;;;;13.35;7.10;;;;;;;;;;5050070;28;20502;-81
2023/01/18 06:13:52;;;;;;;11.75;7.53;;;;;;;;;;5049789;28;20101;-81
2023/01/18 06:16:18;;;;;;;14.45;7.75;;;;;;;;;;5036766;28;20056;-81
2023/01/18 06:18:44;;;;;;;12.88;7.50;;;;;;;;;;5050338;28;20454;-81
2023/01/18 06:21:10;;;;;;;13.13;6.95;;;;;;;;;;5045564;28;20460;-81
2023/01/18 06:23:36;;;;;;;12.65;7.20;;;;;;;;;;5040536;28;20048;-81
2023/01/18 06:26:03;;;;;;;13.20;7.60;;;;;;;;;;5051108;28;20045;-81
2023/01/18 06:28:29;;;;;;;12.40;6.85;;;;;;;;;;5042819;28;20052;-81
2023/01/18 06:30:55;;;;;;;13.98;7.30;;;;;;;;;;5046154;28;20048;-81
2023/01/18 06:33:21;;;;;;;12.00;7.13;;;;;;;;;;5050344;28;20072;-81
2023/01/18 06:35:47;;;;;;;13.82;7.30;;;;;;;;;;5051862;28;20430;-81
2023/01/18 06:38:13;;;;;;;12.85;6.68;;;;;;;;;;5051323;28;20074;-81
2023/01/18 06:40:39;;;;;;;15.25;7.28;;;;;;;;;;5069375;28;20052;-81
2023/01/18 06:43:07;;;;;;;9.35;6.15;;;;;;;;;;5034666;28;20056;-81
2023/01/18 06:45:33;;;;;;;16.98;7.30;;;;;;;;;;5051201;28;20046;-81
2023/01/18 06:47:59;;;;;;;13.55;7.78;;;;;;;;;;5049978;28;20094;-81
2023/01/18 06:50:25;;;;;;;13.38;7.47;;;;;;;;;;5038719;28;20075;-81
2023/01/18 06:52:51;;;;;;;16.00;7.68;;;;;;;;;;5069249;28;20048;-81
2023/01/18 06:55:18;;;;;;;11.00;6.95;;;;;;;;;;5049157;28;20059;-82
2023/01/18 06:57:46;;;;;;;12.75;7.95;;;;;;;;;;5038670;28;20070;-81
2023/01/18 07:00:12;;;;;;;10.13;6.57;;;;;;;;;;5053226;28;20127;-81
2023/01/18 07:02:38;;;;;;;12.93;7.32;;;;;;;;;;5034593;28;20037;-81
2023/01/18 07:05:04;;;;;;;10.40;6.47;;;;;;;;;;5050722;28;20525;-81
2023/01/18 07:07:30;;;;;;;13.48;7.00;;;;;;;;;;5046767;28;20044;-81
2023/01/18 07:09:56;;;;;;;11.43;7.88;;;;;;;;;;5040940;28;20039;-81
2023/01/18 07:12:22;;;;;;;14.48;7.97;;;;;;;;;;5035035;28;20465;-81
2023/01/18 07:14:49;;;;;;;17.17;8.02;;;;;;;;;;5051817;28;20040;-81
2023/01/18 07:17:15;;;;;;;11.02;7.38;;;;;;;;;;5051219;28;20058;-81
2023/01/18 07:19:41;;;;;;;12.48;7.43;;;;;;;;;;5035935;28;20040;-81
2023/01/18 07:22:06;;;;;;;13.13;7.13;;;;;;;;;;5045383;28;20040;-81
2023/01/18 07:24:33;;;;;;;13.95;7.22;;;;;;;;;;5050169;28;20044;-81
2023/01/18 07:26:59;;;;;;;13.25;7.25;;;;;;;;;;5051348;28;20067;-81
2023/01/18 07:29:26;;;;;;;12.38;7.03;;;;;;;;;;5050668;28;20410;-81
2023/01/18 07:31:52;;;;;;;13.57;7.25;;;;;;;;;;5050655;28;20113;-81
2023/01/18 07:34:18;;;;;;;15.77;7.22;;;;;;;;;;5050245;28;20565;-81
2023/01/18 07:36:44;;;;;;;12.50;7.80;;;;;;;;;;5050696;28;20083;-82
2023/01/18 07:39:10;;;;;;;12.30;7.18;;;;;;;;;;5049770;28;20888;-82
2023/01/18 07:41:36;;;;;;;11.80;7.05;;;;;;;;;;5032767;28;20796;-81
2023/01/18 07:44:03;;;;;;;12.65;7.55;;;;;;;;;;5049121;28;20098;-81
2023/01/18 07:46:29;;;;;;;13.93;7.53;;;;;;;;;;5048554;28;20102;-82
2023/01/18 07:48:55;;;;;;;12.43;7.65;;;;;;;;;;5038617;28;20042;-81
2023/01/18 07:51:22;;;;;;;17.98;7.85;;;;;;;;;;5049780;28;20052;-82
2023/01/18 07:53:48;;;;;;;12.57;7.07;;;;;;;;;;5043035;28;20467;-84
2023/01/18 07:56:16;;;;;;;13.60;6.78;;;;;;;;;;5024395;28;20041;-82
2023/01/18 07:58:42;;;;;;;11.90;6.57;;;;;;;;;;5044348;28;20080;-81
2023/01/18 08:01:12;;;;;;;16.50;8.15;;;;;;;;;;5037755;28;20238;-83
2023/01/18 08:03:38;;;;;;;15.73;7.13;;;;;;;;;;5050401;28;20050;-84
2023/01/18 08:06:06;;;;;;;15.73;7.60;;;;;;;;;;5050069;28;20052;-83
2023/01/18 08:08:32;;;;;;;10.77;6.65;;;;;;;;;;5037870;28;20077;-82
2023/01/18 08:10:59;;;;;;;13.15;7.50;;;;;;;;;;5029929;28;20044;-82
2023/01/18 08:13:26;;;;;;;12.13;7.10;;;;;;;;;;5041284;28;20060;-81
2023/01/18 08:15:52;;;;;;;11.85;7.13;;;;;;;;;;5033244;28;20131;-81
2023/01/18 08:18:18;;;;;;;15.00;7.43;;;;;;;;;;5039364;28;20048;-82
2023/01/18 08:20:45;;;;;;;12.77;6.65;;;;;;;;;;5049074;28;20052;-81
2023/01/18 08:23:11;;;;;;;12.40;7.13;;;;;;;;;;5049948;28;20106;-81
2023/01/18 08:25:37;;;;;;;10.93;7.28;;;;;;;;;;5049545;28;20056;-82
2023/01/18 08:28:03;;;;;;;14.05;7.07;;;;;;;;;;5033354;28;20093;-81
2023/01/18 08:30:31;;;;;;;14.68;6.93;;;;;;;;;;5042129;28;20037;-82
2023/01/18 08:32:59;;;;;;;14.90;6.10;;;;;;;;;;5049759;28;20040;-82
2023/01/18 08:35:25;;;;;;;10.85;6.70;;;;;;;;;;5046761;28;20047;-82
2023/01/18 08:37:51;;;;;;;10.68;7.15;;;;;;;;;;5049183;28;20040;-83
2023/01/18 08:40:18;;;;;;;14.48;6.40;;;;;;;;;;5029211;28;20473;-85
2023/01/18 08:42:45;;;;;;;9.57;5.93;;;1.30;99.90;;;;;;5042527;28;20506;-85
2023/01/18 08:45:12;;;;;;;11.38;5.75;;;;;;;;;;5031577;28;20414;-86
2023/01/18 08:47:38;;;;;;;11.02;6.63;;;;;;;;;;5032632;28;20036;-82
2023/01/18 08:50:04;;;;;;;10.63;6.53;;;;;;;;;;5048666;28;20051;-82
2023/01/18 08:52:30;;;;;;;10.93;6.72;;;;;;;;;;5048466;28;20048;-83
2023/01/18 08:54:56;;;;;;;9.85;5.90;;;;;;;;;;5035389;28;20095;-85
2023/01/18 08:57:22;;;;;;;9.80;6.45;;;;;;;;;;5046684;28;20075;-83
2023/01/18 08:59:48;;;;;;;12.30;6.20;;;;;;;;;;5047850;28;20051;-87
2023/01/18 09:02:15;;;;;;;13.32;5.50;;;;;;;;;;5048384;28;20040;-83
2023/01/18 09:04:42;;;;;;;11.57;5.28;;;;;;;;;;5044338;28;20056;-82
2023/01/18 09:07:08;;;;;;;8.55;5.60;;;;;;;;;;5049781;28;20047;-82
2023/01/18 09:09:34;;;;;;;9.40;5.07;;;;;;;;;;5048927;28;20426;-82
2023/01/18 09:12:00;;;;;;;10.32;5.35;;;;;;;;;;5035547;28;20120;-81
2023/01/18 09:14:26;;;;;;;10.20;5.53;;;;;;;;;;5029490;28;20051;-80
2023/01/18 09:16:52;;;;;;;7.88;4.95;;;;;;;;;;5040170;28;20040;-83
2023/01/18 09:19:18;;;;;;;9.52;6.07;;;;;;;;;;5045442;28;20066;-81
2023/01/18 09:21:45;;;;;;;7.97;5.53;;;;;;;;;;5038932;28;20045;-84
2023/01/18 09:24:11;;;;;;;8.35;5.65;;;;;;;;;;5049684;28;20075;-80
2023/01/18 09:26:37;;;;;;;11.73;6.43;;;;;;;;;;5043850;28;20052;-81
2023/01/18 09:29:03;;;;;;;9.75;5.22;;;;;;;;;;5051212;28;20052;-91
2023/01/18 09:31:29;;;;;;;8.48;5.60;;;;;;;;;;5033165;28;20049;-84
2023/01/18 09:33:56;;;;;;;11.85;5.30;;;;;;;;;;5048969;28;20053;-84
2023/01/18 09:36:25;;;;;;;9.05;4.72;;;;;;;;;;5035104;28;20040;-83
2023/01/18 09:38:51;;;;;;;8.88;5.60;;;;;;;;;;5066858;28;20063;-83
2023/01/18 09:41:48;;;;;;;10.15;5.40;;;3.80;99.90;;;;;;5047616;28;20036;-82
2023/01/18 09:44:21;;;;;;;9.60;5.05;;;;;;;;;;5047855;28;20063;-84
2023/01/18 09:46:55;;;;;;;10.00;5.05;;;;;;;;;;5028662;28;20075;-86
2023/01/18 09:49:25;;;;;;;8.30;4.30;;;;;;;;;;5039555;28;20040;-84
2023/01/18 09:51:57;;;;;;;10.13;5.35;;;;;;;;;;5046856;28;20051;-85
2023/01/18 09:54:23;;;;;;;10.23;6.63;;;;;;;;;;5047046;28;20047;-83
2023/01/18 09:56:58;;;;;;;7.57;5.13;;;;;;;;;;5047175;28;20795;-84
2023/01/18 09:59:24;;;;;;;9.40;5.55;;;;;;;;;;5034790;28;20055;-86
2023/01/18 10:01:50;;;;;;;7.55;4.50;;;;;;;;;;5034164;28;20052;-84
2023/01/18 10:04:31;;;;;;;8.98;5.20;;;;;;;;;;5033218;28;20056;-84
2023/01/18 10:07:13;;;;;;;9.07;5.57;;;4.10;99.90;;;;;;5018950;28;20453;-87
2023/01/18 10:09:54;;;;;;;7.32;5.00;;;;;;;;;;5030622;28;20049;-84
2023/01/18 10:12:43;;;;;;;11.57;5.30;;;4.20;99.90;;;;;;5015485;28;20095;-87
2023/01/18 10:15:19;;;;;;;11.07;5.53;;;;;;;;;;5036879;28;20056;-85
2023/01/18 10:17:45;;;;;;;10.43;4.30;;;;;;;;;;5047876;28;20414;-84
2023/01/18 10:20:14;;;;;;;11.85;5.28;;;;;;;;;;5045206;28;20053;-85
2023/01/18 10:22:56;;;;;;;10.43;4.70;;;;;;;;;;5047521;28;20524;-84
2023/01/18 10:25:36;;;;;;;8.93;4.95;;;;;;;;;;5028691;28;20045;-85
2023/01/18 10:28:05;;;;;;;9.60;5.35;;;;;;;;;;5047634;28;20094;-84
2023/01/18 10:31:01;;;;;;;11.27;6.15;;;4.00;99.90;;;;;;5050112;28;20049;-85
2023/01/18 10:33:29;;;;;;;10.23;4.47;;;;;;;;;;5033509;28;20141;-87
2023/01/18 10:36:05;;;;;;;9.48;4.63;;;;;;;;;;5034048;28;20060;-87
2023/01/18 10:38:31;;;;;;;9.07;5.13;;;;;;;;;;5050066;28;20478;-87
2023/01/18 10:40:59;;;;;;;10.85;5.03;;;;;;;;;;5033281;28;20109;-86
2023/01/18 10:43:26;;;;;;;6.93;4.93;;;;;;;;;;5049905;28;20145;-86
2023/01/18 10:45:53;;;;;;;8.88;4.78;;;;;;;;;;5049881;28;20052;-86
2023/01/18 10:48:37;;;;;;;7.82;4.80;;;;;;;;;;5049865;28;20083;-87
2023/01/18 10:51:05;;;;;;;12.65;6.57;;;;;;;;;;5033320;28;20040;-86
2023/01/18 10:53:31;;;;;;;8.45;5.38;;;;;;;;;;5049779;28;20102;-86
2023/01/18 10:56:12;;;;;;;12.98;5.05;;;;;;;;;;5033312;28;20593;-86
2023/01/18 10:58:37;;;;;;;7.80;4.18;;;;;;;;;;5036032;28;20132;-87
2023/01/18 11:01:04;;;;;;;10.20;5.13;;;;;;;;;;5033224;28;20143;-88
2023/01/18 11:03:38;;;;;;;9.18;4.43;;;5.20;99.90;;;;;;5043025;28;20075;-86
2023/01/18 11:06:05;;;;;;;8.15;5.00;;;;;;;;;;5050002;28;20063;-89
2023/01/18 11:08:33;;;;;;;7.97;4.68;;;;;;;;;;5020696;28;20076;-87
2023/01/18 11:11:06;;;;;;;7.65;4.43;;;;;;;;;;5035972;28;20048;-90
2023/01/18 11:13:34;;;;;;;10.45;5.03;;;;;;;;;;5032588;28;20170;-89
2023/01/18 11:16:11;;;;;;;7.25;4.35;;;;;;;;;;5020373;28;20582;-89
2023/01/18 11:18:39;;;;;;;7.32;4.40;;;;;;;;;;5048235;28;20054;-88
2023/01/18 11:21:08;;;;;;;6.72;4.22;;;;;;;;;;5049133;28;20079;-87
2023/01/18 11:23:35;;;;;;;7.22;4.97;;;;;;;;;;5013487;28;20065;-85
2023/01/18 11:26:06;;;;;;;8.60;5.13;;;;;;;;;;5047260;28;20050;-85
2023/01/18 11:28:39;;;;;;;5.00;4.30;;;;;;;;;;5048814;28;20040;-85
2023/01/18 11:31:08;;;;;;;7.40;4.35;;;;;;;;;;5031948;28;20151;-85
2023/01/18 11:33:35;;;;;;;12.65;4.80;;;;;;;;;;5048534;28;20090;-91
2023/01/18 11:36:03;;;;;;;7.07;4.60;;;;;;;;;;5032168;28;20081;-86
2023/01/18 11:38:30;;;;;;;9.25;4.72;;;;;;;;;;5048544;28;20181;-86
2023/01/18 11:41:03;;;;;;;6.80;4.50;;;;;;;;;;5032314;28;20156;-87
2023/01/18 11:43:32;;;;;;;8.23;4.05;;;4.90;99.90;;;;;;5031849;28;20653;-87
2023/01/18 11:46:01;;;;;;;10.52;4.95;;;;;;;;;;5032058;28;20051;-88
2023/01/18 11:48:47;;;;;;;5.68;4.30;;;;;;;;;;5025072;28;20036;-86
2023/01/18 11:51:19;;;;;;;7.00;4.40;;;;;;;;;;5044950;28;20507;-86
2023/01/18 11:53:55;;;;;;;9.02;4.75;;;;;;;;;;5042133;28;20661;-87
2023/01/18 11:56:33;;;;;;;7.03;4.22;;;;;;;;;;5049235;28;20060;-87
2023/01/18 11:59:00;;;;;;;7.20;4.78;;;;;;;;;;5035205;28;20059;-87
2023/01/18 12:01:32;;;;;;;9.55;5.30;;;;;;;;;;5022467;28;20780;-87
2023/01/18 12:03:58;;;;;;;6.55;4.43;;;;;;;;;;5014766;28;20052;-86
2023/01/18 12:06:35;;;;;;;10.25;4.22;;;5.20;99.90;;;;;;5031876;28;20094;-86
2023/01/18 12:09:02;;;;;;;7.85;4.30;;;;;;;;;;5050207;28;20115;-89
2023/01/18 12:11:37;;;;;;;6.90;4.75;;;;;;;;;;5032797;28;20391;-88
2023/01/18 12:14:12;;;;;;;6.93;4.88;;;;;;;;;;5032636;28;20067;-89
2023/01/18 12:17:04;;;;;;;6.15;4.05;;;;;;;;;;5033506;28;20050;-90
2023/01/18 12:19:33;;;;;;;7.57;4.15;;;;;;;;;;5014345;28;20044;-90
2023/01/18 12:22:06;;;;;;;6.13;3.90;;;;;;;;;;5029888;28;20459;-89
2023/01/18 12:24:36;;;;;;;5.60;3.80;;;;;;;;;;5033247;28;20060;-89
2023/01/18 12:27:08;;;;;;;7.28;3.92;;;;;;;;;;5048495;28;20045;-88
2023/01/18 12:29:41;;;;;;;7.07;4.05;;;;;;;;;;5047913;28;20036;-88
2023/01/18 12:32:10;;;;;;;6.72;3.75;;;;;;;;;;5032676;28;20045;-87
2023/01/18 12:34:54;;;;;;;7.15;4.15;;;;;;;;;;5032005;28;20123;-88
2023/01/18 12:37:36;;;;;;;8.25;3.85;;;6.40;99.90;;;;;;5032238;28;20044;-88
2023/01/18 12:40:02;;;;;;;9.50;3.60;;;;;;;;;;5032321;28;20040;-90
2023/01/18 12:42:35;;;;;;;8.15;3.95;;;;;;;;;;5032087;28;20415;-89
2023/01/18 12:45:14;;;;;;;7.30;3.92;;;;;;;;;;5041422;28;20055;-86
2023/01/18 12:47:46;;;;;;;7.20;3.38;;;7.20;99.90;;;;;;5025494;28;20544;-89
2023/01/18 12:50:12;;;;;;;6.60;3.63;;;;;;;;;;5031477;28;20075;-88
2023/01/18 12:52:42;;;;;;;6.18;3.53;;;;;;;;;;5029153;28;20032;-86
2023/01/18 12:55:15;;;;;;;7.15;4.00;;;;;;;;;;5048080;28;20578;-88
2023/01/18 12:57:41;;;;;;;5.05;3.53;;;;;;;;;;5031912;28;20080;-86
2023/01/18 13:00:13;;;;;;;6.35;3.20;;;;;;;;;;5047893;28;20536;-87
2023/01/18 13:02:44;;;;;;;7.75;3.78;;;;;;;;;;5045964;28;20036;-86
2023/01/18 13:05:33;;;;;;;6.72;3.80;;;;;;;;;;5020278;28;20053;-87
2023/01/18 13:08:14;;;;;;;6.82;3.78;;;6.10;99.90;;;;;;5031269;28;20505;-86
2023/01/18 13:10:41;;;;;;;9.07;3.45;;;;;;;;;;5031089;28;20086;-88
2023/01/18 13:13:11;;;;;;;6.65;3.67;;;;;;;;;;5024967;28;20041;-88
2023/01/18 13:15:49;;;;;;;7.70;4.35;;;;;;;;;;5040972;28;20723;-88
2023/01/18 13:18:20;;;;;;;5.43;3.50;;;;;;;;;;5045024;28;20048;-87
2023/01/18 13:21:15;;;;;;;8.25;3.55;;;5.40;99.90;;;;;;5047887;28;20048;-88
2023/01/18 13:23:59;;;;;;;7.30;3.70;;;;;;;;;;5036432;28;20059;-88
2023/01/18 13:26:28;;;;;;;7.15;3.72;;;;;;;;;;5043395;28;20044;-88
2023/01/18 13:29:09;;;;;;;6.60;3.75;;;;;;;;;;5029596;28;20114;-88
2023/01/18 13:31:36;;;;;;;6.85;3.90;;;;;;;;;;5030290;28;20047;-87
2023/01/18 13:34:03;;;;;;;11.07;3.92;;;;;;;;;;5025313;28;20045;-87
2023/01/18 13:36:41;;;;;;;8.68;4.05;;;;;;;;;;5029812;28;20040;-88
2023/01/18 13:39:11;;;;;;;5.75;3.45;;;;;;;;;;5045304;28;20457;-88
2023/01/18 13:41:37;;;;;;;7.80;3.97;;;;;;;;;;5031725;28;20049;-87
2023/01/18 13:44:05;;;;;;;6.63;3.63;;;;;;;;;;5034776;28;20110;-89
2023/01/18 13:46:34;;;;;;;10.40;4.05;;;;;;;;;;5049633;28;20040;-86
2023/01/18 13:49:14;;;;;;;6.95;3.60;;;;;;;;;;5050323;28;20053;-88
2023/01/18 13:51:40;;;;;;;6.57;3.90;;;;;;;;;;5050586;28;20102;-87
2023/01/18 13:54:10;;;;;;;10.73;3.78;;;;;;;;;;5027267;28;20040;-87
2023/01/18 13:56:37;;;;;;;10.05;4.15;;;;;;;;;;5051059;28;20048;-87
2023/01/18 13:59:12;;;;;;;7.65;4.30;;;;;;;;;;5051299;28;20090;-87
2023/01/18 14:01:41;;;;;;;9.63;4.70;;;;;;;;;;5035079;28;20044;-88
2023/01/18 14:04:23;;;;;;;8.27;4.47;;;;;;;;;;5053495;28;20528;-86
2023/01/18 14:06:49;;;;;;;7.90;4.80;;;;;;;;;;5034321;28;20052;-87
2023/01/18 14:09:17;;;;;;;7.85;3.78;;;;;;;;;;5050916;28;20047;-87
2023/01/18 14:11:52;;;;;;;7.97;4.75;;;4.60;99.90;;;;;;5034255;28;20037;-87
2023/01/18 14:14:18;;;;;;;8.80;4.13;;;;;;;;;;5050657;28;20051;-87
2023/01/18 14:16:58;;;;;;;9.30;4.40;;;;;;;;;;5050635;28;20648;-87
2023/01/18 14:19:26;;;;;;;11.15;5.15;;;;;;;;;;5049400;28;20522;-86
2023/01/18 14:21:55;;;;;;;7.82;3.97;;;;;;;;;;5042854;28;20052;-87
2023/01/18 14:24:33;;;;;;;10.88;4.70;;;;;;;;;;5050703;28;20665;-87
2023/01/18 14:26:59;;;;;;;10.07;4.45;;;;;;;;;;5047080;28;20114;-86
2023/01/18 14:29:33;;;;;;;11.00;4.47;;;;;;;;;;5050251;28;20036;-89
2023/01/18 14:32:00;;;;;;;5.80;4.30;;;;;;;;;;5024221;28;20051;-86
2023/01/18 14:34:29;;;;;;;6.80;5.13;;;;;;;;;;5033979;28;20127;-87
2023/01/18 14:36:57;;;;;;;7.78;4.85;;;;;;;;;;5050204;28;20048;-87
2023/01/18 14:39:24;;;;;;;7.80;4.88;;;;;;;;;;5048481;28;20456;-87
2023/01/18 14:41:52;;;;;;;9.13;4.35;;;;;;;;;;5050308;28;21194;-87
2023/01/18 14:44:23;;;;;;;8.95;4.90;;;;;;;;;;5033422;28;20785;-86
2023/01/18 14:46:53;;;;;;;8.90;4.85;;;;;;;;;;5033237;28;20121;-87
2023/01/18 14:49:25;;;;;;;7.85;4.68;;;;;;;;;;5021223;28;20041;-87
2023/01/18 14:51:52;;;;;;;7.10;4.05;;;;;;;;;;5049771;28;20170;-88
2023/01/18 14:54:18;;;;;;;11.27;5.43;;;;;;;;;;5041556;28;20041;-87
2023/01/18 14:56:45;;;;;;;6.90;4.57;;;;;;;;;;5030101;28;20075;-87
2023/01/18 14:59:22;;;;;;;12.05;5.30;;;;;;;;;;5044028;28;20045;-88
2023/01/18 15:02:12;;;;;;;10.05;5.60;;;4.40;99.90;;;;;;5042986;28;20051;-87
2023/01/18 15:04:43;;;;;;;9.00;5.68;;;;;;;;;;5040956;28;20053;-87
2023/01/18 15:07:10;;;;;;;9.02;5.13;;;;;;;;;;5045094;28;20097;-87
2023/01/18 15:09:38;;;;;;;7.85;4.93;;;;;;;;;;5050364;28;20051;-87
2023/01/18 15:12:06;;;;;;;9.13;5.45;;;;;;;;;;5043415;28;20123;-87
2023/01/18 15:14:34;;;;;;;13.98;6.20;;;;;;;;;;5043892;28;20124;-87